createdAt,value
2022-08-21T00:01:48.034Z,6.30
2022-08-21T00:06:52.544Z,7.20
2022-08-21T00:11:56.169Z,6.90
2022-08-21T00:17:00.237Z,6.90
2022-08-21T00:22:04.422Z,6.50
2022-08-21T00:27:08.751Z,5.10
2022-08-21T00:32:13.196Z,5.10
2022-08-21T00:37:17.759Z,6.00
2022-08-21T00:42:22.577Z,5.50
2022-08-21T00:47:26.734Z,5.40
2022-08-21T00:52:34.318Z,4.70
2022-08-21T00:57:45.774Z,4.40
2022-08-21T01:02:50.200Z,4.00
2022-08-21T01:07:59.222Z,4.10
2022-08-21T01:13:09.949Z,3.30
2022-08-21T01:18:16.811Z,4.50
2022-08-21T01:23:21.217Z,4.00
2022-08-21T01:28:26.809Z,4.00
2022-08-21T01:33:30.932Z,4.50
2022-08-21T01:38:35.351Z,5.30
2022-08-21T01:43:40.004Z,5.20
2022-08-21T01:48:45.091Z,4.10
2022-08-21T01:53:49.584Z,4.90
2022-08-21T01:58:54.483Z,4.60
2022-08-21T02:04:01.257Z,4.70
2022-08-21T02:09:08.173Z,4.50
2022-08-21T02:14:15.959Z,5.70
2022-08-21T02:19:40.132Z,5.40
2022-08-21T02:24:53.716Z,5.80
2022-08-21T02:30:00.583Z,5.50
2022-08-21T02:35:06.359Z,5.20
2022-08-21T02:40:13.056Z,5.00
2022-08-21T02:45:19.258Z,5.10
2022-08-21T02:50:31.323Z,5.00
2022-08-21T02:55:37.576Z,5.40
2022-08-21T03:00:42.037Z,5.00
2022-08-21T03:05:49.541Z,6.10
2022-08-21T03:10:54.804Z,5.80
2022-08-21T03:15:58.129Z,6.20
2022-08-21T03:21:01.951Z,6.10
2022-08-21T03:26:05.867Z,6.30
2022-08-21T03:31:11.921Z,5.60
2022-08-21T03:36:15.304Z,5.30
2022-08-21T03:41:19.431Z,4.70
2022-08-21T03:46:24.094Z,5.30
2022-08-21T03:51:28.575Z,5.90
2022-08-21T03:56:33.687Z,6.90
2022-08-21T04:01:38.242Z,6.40
2022-08-21T04:06:46.678Z,7.40
2022-08-21T04:11:51.302Z,7.50
2022-08-21T04:16:56.320Z,7.10
2022-08-21T04:22:00.708Z,6.90
2022-08-21T04:27:05.134Z,8.20
2022-08-21T04:32:09.176Z,7.00
2022-08-21T04:37:13.119Z,9.00
2022-08-21T04:42:17.102Z,8.40
2022-08-21T04:47:21.530Z,7.20
2022-08-21T04:52:27.143Z,7.40
2022-08-21T04:57:36.691Z,7.30
2022-08-21T05:02:58.282Z,8.00
2022-08-21T05:08:04.654Z,8.50
2022-08-21T05:13:09.451Z,7.70
2022-08-21T05:18:15.113Z,9.20
2022-08-21T05:23:19.881Z,9.00
2022-08-21T05:28:23.316Z,8.80
2022-08-21T05:33:27.600Z,9.10
2022-08-21T05:38:31.192Z,9.20
2022-08-21T05:43:37.668Z,9.00
2022-08-21T05:53:46.592Z,8.90
2022-08-21T05:58:51.614Z,8.30
2022-08-21T06:03:57.203Z,8.60
2022-08-21T06:09:02.785Z,9.50
2022-08-21T06:14:08.145Z,9.40
2022-08-21T06:19:12.232Z,8.20
2022-08-21T06:24:17.340Z,8.70
2022-08-21T06:29:23.199Z,8.10
2022-08-21T06:39:32.334Z,8.00
2022-08-21T06:44:38.670Z,8.30
2022-08-21T06:49:45.732Z,7.40
2022-08-21T06:54:51.916Z,8.00
2022-08-21T06:59:56.888Z,8.70
2022-08-21T07:05:17.953Z,9.50
2022-08-21T07:10:23.604Z,8.80
2022-08-21T07:15:31.989Z,8.70
2022-08-21T07:20:37.060Z,8.10
2022-08-21T07:25:41.720Z,8.50
2022-08-21T07:30:47.284Z,8.80
2022-08-21T07:35:51.727Z,8.50
2022-08-21T07:41:01.013Z,7.90
2022-08-21T07:46:04.982Z,8.50
2022-08-21T07:51:14.836Z,8.70
2022-08-21T07:56:19.982Z,7.30
2022-08-21T08:01:23.799Z,9.40
2022-08-21T08:06:28.018Z,7.90
2022-08-21T08:11:32.459Z,8.40
2022-08-21T08:16:35.927Z,6.60
2022-08-21T08:21:39.675Z,7.70
2022-08-21T08:26:42.969Z,7.50
2022-08-21T08:31:46.338Z,7.50
2022-08-21T08:36:49.873Z,6.50
2022-08-21T08:42:31.994Z,6.40
2022-08-21T08:47:32.713Z,6.20
2022-08-21T08:52:46.853Z,7.00
2022-08-21T08:57:55.371Z,6.90
2022-08-21T09:03:01.987Z,6.90
2022-08-21T09:08:34.584Z,7.60
2022-08-21T09:13:40.566Z,7.70
2022-08-21T09:19:15.996Z,7.60
2022-08-21T09:24:52.116Z,6.70
2022-08-21T09:29:56.135Z,6.80
2022-08-21T09:35:21.466Z,6.50
2022-08-21T09:40:37.130Z,6.80
2022-08-21T09:45:43.474Z,7.30
2022-08-21T09:50:49.024Z,6.80
2022-08-21T09:56:13.344Z,7.30
2022-08-21T10:01:24.003Z,7.50
2022-08-21T10:06:29.705Z,6.90
2022-08-21T10:11:35.646Z,6.20
2022-08-21T10:16:57.669Z,6.60
2022-08-21T10:22:09.859Z,6.60
2022-08-21T10:27:28.911Z,5.90
2022-08-21T10:32:44.266Z,6.50
2022-08-21T10:38:02.766Z,6.30
2022-08-21T10:43:24.243Z,6.70
2022-08-21T10:48:41.153Z,6.80
2022-08-21T10:54:27.550Z,6.10
2022-08-21T10:59:38.704Z,6.60
2022-08-21T11:05:03.211Z,6.70
2022-08-21T11:10:36.808Z,6.50
2022-08-21T11:15:56.630Z,6.30
2022-08-21T11:21:41.127Z,6.30
2022-08-21T11:27:10.266Z,5.90
2022-08-21T11:32:17.150Z,7.00
2022-08-21T11:37:28.561Z,6.50
2022-08-21T11:42:38.791Z,5.90
2022-08-21T11:47:53.736Z,6.70
2022-08-21T11:53:35.118Z,6.20
2022-08-21T11:58:48.993Z,6.20
2022-08-21T12:04:10.318Z,6.20
2022-08-21T12:09:26.556Z,6.50
2022-08-21T12:14:48.270Z,6.00
2022-08-21T12:20:00.288Z,5.60
2022-08-21T12:25:21.677Z,6.00
2022-08-21T12:30:28.442Z,5.20
2022-08-21T12:35:41.702Z,4.80
2022-08-21T12:40:52.229Z,4.40
2022-08-21T12:45:55.834Z,4.90
2022-08-21T12:51:14.467Z,4.80
2022-08-21T12:56:31.036Z,5.20
2022-08-21T13:01:47.340Z,5.20
2022-08-21T13:06:56.363Z,4.10
2022-08-21T13:12:01.171Z,5.50
2022-08-21T13:17:07.181Z,4.50
2022-08-21T13:22:33.522Z,5.10
2022-08-21T13:27:38.254Z,4.60
2022-08-21T13:32:47.487Z,4.70
2022-08-21T13:37:53.136Z,4.60
2022-08-21T13:42:58.081Z,5.00
2022-08-21T13:48:06.335Z,4.90
2022-08-21T13:53:23.264Z,4.50
2022-08-21T13:58:45.856Z,10.50
2022-08-21T14:03:52.288Z,14.50
2022-08-21T14:09:02.932Z,16.80
2022-08-21T14:14:23.590Z,16.20
2022-08-21T14:19:40.662Z,16.80
2022-08-21T14:24:44.166Z,15.80
2022-08-21T14:29:47.637Z,15.60
2022-08-21T14:34:50.767Z,15.70
2022-08-21T14:39:54.614Z,16.00
2022-08-21T14:45:03.849Z,15.80
2022-08-21T14:50:08.054Z,15.60
2022-08-21T14:55:15.287Z,14.50
2022-08-21T15:00:26.978Z,14.50
2022-08-21T15:05:40.424Z,13.70
2022-08-21T15:11:08.622Z,12.00
2022-08-21T15:16:12.207Z,12.70
2022-08-21T15:21:16.791Z,13.60
2022-08-21T15:26:22.395Z,15.00
2022-08-21T15:36:29.543Z,17.70
2022-08-21T15:41:33.237Z,18.90
2022-08-21T15:46:38.925Z,17.40
2022-08-21T15:51:43.687Z,17.40
2022-08-21T15:56:51.917Z,17.70
2022-08-21T16:01:55.355Z,16.30
2022-08-21T16:07:04.392Z,16.60
2022-08-21T16:12:18.862Z,15.30
2022-08-21T16:17:29.997Z,13.20
2022-08-21T16:22:44.105Z,13.50
2022-08-21T16:27:56.148Z,15.10
2022-08-21T16:33:10.245Z,15.10
2022-08-21T16:38:13.756Z,14.60
2022-08-21T16:43:19.437Z,13.70
2022-08-21T16:48:25.124Z,14.40
2022-08-21T16:58:50.000Z,15.00
2022-08-21T17:04:03.714Z,16.50
2022-08-21T17:09:13.376Z,15.30
2022-08-21T17:14:27.204Z,14.10
2022-08-21T17:19:44.373Z,12.70
2022-08-21T17:25:05.327Z,14.70
2022-08-21T17:30:19.090Z,12.20
2022-08-21T17:35:25.513Z,13.60
2022-08-21T17:40:30.743Z,12.40
2022-08-21T17:45:41.616Z,13.20
2022-08-21T17:50:46.161Z,11.90
2022-08-21T17:55:50.530Z,12.80
2022-08-21T18:00:54.938Z,12.80
2022-08-21T18:05:59.763Z,9.60
2022-08-21T18:11:05.502Z,11.40
2022-08-21T18:16:13.437Z,10.70
2022-08-21T18:21:19.520Z,10.80
2022-08-21T18:26:29.561Z,8.70
2022-08-21T18:31:35.686Z,9.60
2022-08-21T18:36:39.708Z,8.70
2022-08-21T18:41:45.687Z,8.90
2022-08-21T18:46:55.302Z,9.10
2022-08-21T18:52:17.891Z,9.30
2022-08-21T18:57:46.691Z,8.40
2022-08-21T19:03:05.960Z,8.20
2022-08-21T19:08:17.565Z,8.70
2022-08-21T19:13:23.365Z,8.30
2022-08-21T19:18:30.811Z,7.80
2022-08-21T19:23:35.799Z,9.00
2022-08-21T19:28:49.590Z,8.70
2022-08-21T19:34:05.475Z,8.90
2022-08-21T19:39:11.673Z,7.90
2022-08-21T19:44:21.254Z,8.40
2022-08-21T19:49:49.138Z,9.00
2022-08-21T19:55:16.589Z,8.80
2022-08-21T20:00:24.334Z,7.40
2022-08-21T20:05:36.096Z,7.60
2022-08-21T20:10:46.247Z,6.90
2022-08-21T20:16:24.159Z,7.30
2022-08-21T20:21:43.525Z,8.00
2022-08-21T20:26:49.702Z,7.40
2022-08-21T20:31:53.626Z,6.90
2022-08-21T20:36:59.018Z,6.50
2022-08-21T20:42:06.861Z,6.90
2022-08-21T20:52:21.842Z,5.50
2022-08-21T20:57:38.175Z,6.40
2022-08-21T21:03:04.362Z,6.10
2022-08-21T21:08:25.540Z,5.50
2022-08-21T21:14:00.884Z,5.60
2022-08-21T21:19:13.787Z,4.70
2022-08-21T21:24:37.791Z,5.20
2022-08-21T21:29:48.883Z,4.20
2022-08-21T21:34:52.499Z,4.60
2022-08-21T21:40:21.512Z,3.60
2022-08-21T21:45:34.576Z,4.60
2022-08-21T22:02:13.085Z,4.50
2022-08-21T22:07:25.519Z,4.80
2022-08-21T22:12:49.671Z,4.40
2022-08-21T22:18:03.131Z,4.60
2022-08-21T22:23:13.142Z,3.40
2022-08-21T22:28:25.562Z,3.70
2022-08-21T22:33:30.339Z,3.80
2022-08-21T22:38:39.554Z,2.80
2022-08-21T22:44:01.634Z,3.30
2022-08-21T22:49:10.750Z,3.30
2022-08-21T22:54:36.282Z,3.10
2022-08-21T22:59:57.283Z,3.90
2022-08-21T23:05:05.423Z,3.60
2022-08-21T23:10:36.788Z,3.60
2022-08-21T23:15:47.096Z,3.80
2022-08-21T23:21:04.558Z,3.10
2022-08-21T23:26:22.895Z,4.00
2022-08-21T23:31:36.769Z,3.90
2022-08-21T23:43:14.468Z,4.70
2022-08-21T23:48:21.510Z,4.60
2022-08-21T23:54:09.556Z,4.70
2022-08-21T23:59:44.797Z,4.10
